Terminal Aerodrome Forecast
Issued by NWS Denver/Boulder, CO

Home | Current Version | Previous Version | Text Only | Print | Product List | Glossary On
Versions: 1 2 3 4 5 6 7 8 9 10 11 12 13 14 15 16 17 18 19 20 21 22 23 24 25 26 27 28 29 30 31 32 33 34 35 36 37 38 39 40 41 42 43 44 45 46 47 48 49 50
000
FTUS45 KBOU 240211 AAB
TAFDEN
TAF AMD
KDEN 240211Z 2402/2506 27010KT P6SM SCT110 BKN150
     FM240600 23010KT P6SM FEW110 SCT150 BKN200
     FM241700 30012G20KT P6SM FEW070 SCT100 BKN220
     FM242000 33020G30KT P6SM VCSH SCT070 BKN090 BKN180
     FM250100 32014KT P6SM FEW070 BKN110=

USA.gov is the U.S. government's official web portal to all federal, state and local government web resources and services.